createdAt,value
2023-05-03T05:04:43.944Z,12.80
2023-05-03T05:09:48.869Z,12.70
2023-05-03T05:14:52.647Z,12.70
2023-05-03T05:19:57.544Z,12.70
2023-05-03T05:25:03.284Z,12.60
2023-05-03T05:30:07.600Z,12.70
2023-05-03T05:35:12.550Z,12.80
2023-05-03T05:40:16.045Z,12.80
2023-05-03T05:45:19.634Z,12.90
2023-05-03T05:50:24.613Z,13.10
2023-05-03T05:55:28.598Z,13.20
2023-05-03T06:14:59.068Z,14.00
2023-05-03T06:20:11.690Z,14.40
2023-05-03T06:30:25.814Z,14.60
2023-05-03T06:45:44.372Z,14.80
2023-05-03T07:00:57.124Z,15.20
2023-05-03T07:06:01.213Z,15.30
2023-05-03T07:16:10.409Z,15.50
2023-05-03T07:21:14.161Z,14.00
2023-05-03T07:26:17.661Z,15.80
2023-05-03T07:31:24.131Z,15.90
2023-05-03T07:36:27.687Z,16.10
2023-05-03T07:41:31.676Z,16.20
2023-05-03T07:46:36.723Z,16.40
2023-05-03T07:51:41.241Z,16.70
2023-05-03T07:56:44.682Z,16.90
2023-05-03T08:01:49.589Z,17.10
2023-05-03T08:06:53.196Z,17.30
2023-05-03T08:11:56.946Z,17.50
2023-05-03T08:17:01.854Z,17.60
2023-05-03T08:22:05.729Z,17.70
2023-05-03T08:27:09.675Z,18.00
2023-05-03T08:32:14.514Z,18.20
2023-05-03T08:37:18.009Z,18.30
2023-05-03T08:42:22.868Z,18.50
2023-05-03T08:47:33.416Z,18.90
2023-05-03T08:52:37.318Z,18.80
2023-05-03T09:02:46.791Z,20.00
2023-05-03T09:08:02.531Z,20.60
2023-05-03T09:13:06.556Z,21.20
2023-05-03T09:18:14.232Z,21.80
2023-05-03T09:23:18.352Z,22.60
2023-05-03T09:28:22.774Z,23.10
2023-05-03T09:33:31.813Z,23.80
2023-05-03T09:38:37.327Z,24.50
2023-05-03T09:43:50.787Z,25.00
2023-05-03T09:48:57.060Z,25.40
2023-05-03T09:54:00.992Z,25.70
2023-05-03T10:04:12.404Z,26.10
2023-05-03T10:09:23.334Z,26.00
2023-05-03T10:14:27.093Z,26.20
2023-05-03T10:19:53.919Z,26.30
2023-05-03T10:25:10.864Z,26.70
2023-05-03T10:30:31.095Z,27.20
2023-05-03T10:35:36.064Z,27.30
2023-05-03T10:40:44.020Z,27.40
2023-05-03T10:45:48.967Z,27.60
2023-05-03T10:50:54.087Z,27.90
2023-05-03T10:56:05.937Z,28.30
2023-05-03T11:01:12.022Z,28.70
2023-05-03T11:06:34.488Z,28.50
2023-05-03T11:11:41.340Z,28.30
2023-05-03T11:16:50.722Z,28.40
2023-05-03T11:21:55.877Z,28.50
2023-05-03T11:26:59.463Z,28.70
2023-05-03T11:32:03.131Z,28.80
2023-05-03T11:37:09.720Z,29.10
2023-05-03T11:42:13.292Z,29.50
2023-05-03T11:47:17.262Z,29.70
2023-05-03T11:52:24.218Z,29.80
2023-05-03T11:57:27.839Z,29.60
2023-05-03T12:02:31.562Z,29.40
2023-05-03T12:07:37.740Z,29.20
2023-05-03T12:12:46.948Z,29.50
2023-05-03T12:18:00.180Z,29.90
2023-05-03T12:23:09.926Z,30.20
2023-05-03T12:28:20.448Z,30.70
2023-05-03T12:33:27.109Z,30.50
2023-05-03T12:38:36.915Z,30.80
2023-05-03T12:43:43.510Z,31.10
2023-05-03T12:48:47.554Z,31.20
2023-05-03T12:53:55.304Z,31.20
2023-05-03T12:59:23.174Z,31.40
2023-05-03T13:04:55.863Z,31.30
2023-05-03T13:14:55.893Z,31.00
2023-05-03T13:19:59.534Z,30.80
2023-05-03T13:25:04.934Z,31.00
2023-05-03T13:30:10.079Z,31.10
2023-05-03T13:35:13.650Z,30.90
2023-05-03T13:40:18.976Z,30.60
2023-05-03T13:45:22.587Z,30.60
2023-05-03T13:50:26.136Z,30.30
2023-05-03T13:55:31.553Z,30.10
2023-05-03T14:00:35.030Z,29.70
2023-05-03T14:05:38.646Z,29.60
2023-05-03T14:10:44.129Z,29.70
2023-05-03T14:15:47.749Z,29.70
2023-05-03T14:20:51.401Z,29.60
2023-05-03T14:25:56.329Z,29.60
2023-05-03T14:31:00.328Z,29.70
2023-05-03T14:36:03.730Z,29.60
2023-05-03T14:41:09.344Z,29.40
2023-05-03T14:46:12.952Z,28.90
2023-05-03T14:51:16.469Z,28.10
2023-05-03T14:56:21.515Z,27.60
2023-05-03T15:01:25.176Z,27.00
2023-05-03T15:06:30.779Z,26.70
2023-05-03T15:11:35.760Z,26.50
2023-05-03T15:16:39.706Z,26.30
2023-05-03T15:21:47.171Z,26.10
2023-05-03T15:26:52.454Z,25.80
2023-05-03T15:31:55.986Z,25.60
2023-05-03T15:42:04.740Z,25.40
2023-05-03T15:47:08.278Z,25.10
2023-05-03T15:52:12.468Z,24.90
2023-05-03T15:57:17.379Z,24.80
2023-05-03T16:02:21.435Z,24.70
2023-05-03T16:07:26.558Z,24.60
2023-05-03T16:12:31.453Z,24.50
2023-05-03T16:17:35.533Z,24.40
2023-05-03T16:22:39.226Z,24.40
2023-05-03T16:27:44.506Z,24.40
2023-05-03T16:32:48.284Z,24.40
2023-05-03T16:37:52.931Z,24.40
2023-05-03T16:42:58.219Z,24.40
2023-05-03T16:48:04.811Z,24.40
2023-05-03T16:53:09.649Z,24.30
2023-05-03T16:58:14.734Z,24.20
2023-05-03T17:03:18.380Z,24.10
2023-05-03T17:08:22.089Z,24.00
2023-05-03T17:13:27.715Z,23.90
2023-05-03T17:18:31.250Z,23.80
2023-05-03T17:23:35.931Z,23.70
2023-05-03T17:28:41.566Z,23.60
2023-05-03T17:33:45.147Z,23.60
2023-05-03T17:38:48.683Z,23.60
2023-05-03T17:43:53.767Z,23.50
2023-05-03T17:48:58.497Z,23.30
2023-05-03T17:54:02.191Z,23.20
2023-05-03T17:59:07.147Z,23.20
2023-05-03T18:04:10.909Z,23.10
2023-05-03T18:09:14.527Z,23.10
2023-05-03T18:14:19.391Z,23.00
2023-05-03T18:19:22.911Z,23.00
2023-05-03T18:24:26.587Z,23.00
2023-05-03T18:29:31.479Z,22.90
2023-05-03T18:34:37.488Z,22.90
2023-05-03T18:39:41.017Z,22.80
2023-05-03T18:44:45.997Z,22.70
2023-05-03T18:49:52.708Z,22.70
2023-05-03T18:54:56.621Z,22.60
2023-05-03T19:00:01.767Z,22.50
2023-05-03T19:05:05.827Z,22.40
2023-05-03T19:10:10.667Z,22.30
2023-05-03T19:15:15.584Z,22.20
2023-05-03T19:20:19.401Z,22.00
2023-05-03T19:25:22.915Z,21.90
2023-05-03T19:30:27.967Z,21.70
2023-05-03T19:35:32.391Z,21.70
2023-05-03T19:40:36.734Z,21.50
2023-05-03T19:45:44.458Z,21.50
2023-05-03T19:50:47.980Z,21.40
2023-05-03T19:55:58.622Z,21.20
2023-05-03T20:01:03.625Z,21.20
2023-05-03T20:06:07.221Z,21.10
2023-05-03T20:11:10.717Z,21.00
2023-05-03T20:16:15.797Z,21.00
2023-05-03T20:21:19.361Z,20.90
2023-05-03T20:26:22.877Z,20.80
2023-05-03T20:31:27.782Z,20.80
2023-05-03T20:36:31.479Z,20.70
2023-05-03T20:41:35.002Z,20.60
2023-05-03T20:46:40.465Z,20.60
2023-05-03T20:51:43.991Z,20.50
2023-05-03T20:56:47.563Z,20.40
2023-05-03T21:01:52.649Z,20.40
2023-05-03T21:06:56.263Z,20.30
2023-05-03T21:11:59.747Z,20.20
2023-05-03T21:17:05.120Z,20.10
2023-05-03T21:22:09.128Z,20.00
2023-05-03T21:27:12.625Z,20.00
2023-05-03T21:32:17.510Z,19.90
2023-05-03T21:37:21.325Z,19.90
2023-05-03T21:42:24.925Z,19.80
2023-05-03T21:47:31.163Z,19.80
2023-05-03T21:52:34.797Z,19.70
2023-05-03T21:57:38.376Z,19.60
2023-05-03T22:02:43.414Z,19.60
2023-05-03T22:07:48.671Z,19.50
2023-05-03T22:12:52.261Z,19.40
2023-05-03T22:17:58.203Z,19.40
2023-05-03T22:23:01.802Z,19.40
2023-05-03T22:28:05.405Z,19.30
